sensor_id;sensor_type;location;lat;lon;timestamp;pressure;altitude;pressure_sealevel;temperature;humidity
7802;BME280;3945;48.952;9.506;2023-02-12T00:01:17;99906.81;;;5.47;81.98
7802;BME280;3945;48.952;9.506;2023-02-12T00:03:44;99896.09;;;5.49;82.24
7802;BME280;3945;48.952;9.506;2023-02-12T00:06:10;99895.28;;;5.48;82.34
7802;BME280;3945;48.952;9.506;2023-02-12T00:08:36;99903.19;;;5.48;82.67
7802;BME280;3945;48.952;9.506;2023-02-12T00:11:07;99900.22;;;5.43;82.65
7802;BME280;3945;48.952;9.506;2023-02-12T00:13:34;99900.69;;;5.39;82.72
7802;BME280;3945;48.952;9.506;2023-02-12T00:16:02;99902.66;;;5.37;82.67
7802;BME280;3945;48.952;9.506;2023-02-12T00:18:30;99901.69;;;5.38;83.00
7802;BME280;3945;48.952;9.506;2023-02-12T00:20:57;99892.78;;;5.39;83.19
7802;BME280;3945;48.952;9.506;2023-02-12T00:23:24;99890.97;;;5.39;83.20
7802;BME280;3945;48.952;9.506;2023-02-12T00:25:50;99896.06;;;5.41;83.09
7802;BME280;3945;48.952;9.506;2023-02-12T00:28:17;99893.94;;;5.44;83.16
7802;BME280;3945;48.952;9.506;2023-02-12T00:30:43;99897.91;;;5.48;82.82
7802;BME280;3945;48.952;9.506;2023-02-12T00:33:09;99905.84;;;5.48;82.89
7802;BME280;3945;48.952;9.506;2023-02-12T00:35:37;99897.06;;;5.48;82.93
7802;BME280;3945;48.952;9.506;2023-02-12T00:38:03;99898.25;;;5.45;82.99
7802;BME280;3945;48.952;9.506;2023-02-12T00:40:30;99899.22;;;5.44;83.12
7802;BME280;3945;48.952;9.506;2023-02-12T00:42:56;99898.56;;;5.42;82.97
7802;BME280;3945;48.952;9.506;2023-02-12T00:45:22;99910.78;;;5.43;82.94
7802;BME280;3945;48.952;9.506;2023-02-12T00:47:48;99919.50;;;5.44;83.08
7802;BME280;3945;48.952;9.506;2023-02-12T00:50:15;99912.44;;;5.44;83.17
7802;BME280;3945;48.952;9.506;2023-02-12T00:52:43;99904.16;;;5.47;82.99
7802;BME280;3945;48.952;9.506;2023-02-12T00:55:09;99899.72;;;5.48;82.77
7802;BME280;3945;48.952;9.506;2023-02-12T00:57:35;99904.03;;;5.49;83.20
7802;BME280;3945;48.952;9.506;2023-02-12T01:00:02;99895.13;;;5.50;83.00
7802;BME280;3945;48.952;9.506;2023-02-12T01:02:28;99897.75;;;5.50;83.28
7802;BME280;3945;48.952;9.506;2023-02-12T01:04:54;99905.69;;;5.50;83.37
7802;BME280;3945;48.952;9.506;2023-02-12T01:07:21;99909.16;;;5.50;83.47
7802;BME280;3945;48.952;9.506;2023-02-12T01:09:48;99903.03;;;5.50;83.29
7802;BME280;3945;48.952;9.506;2023-02-12T01:12:15;99908.47;;;5.48;83.42
7802;BME280;3945;48.952;9.506;2023-02-12T01:14:41;99915.25;;;5.51;83.67
7802;BME280;3945;48.952;9.506;2023-02-12T01:17:07;99907.19;;;5.53;83.66
7802;BME280;3945;48.952;9.506;2023-02-12T01:19:34;99895.78;;;5.52;83.74
7802;BME280;3945;48.952;9.506;2023-02-12T01:22:00;99904.03;;;5.49;83.64
7802;BME280;3945;48.952;9.506;2023-02-12T01:24:26;99904.50;;;5.44;84.05
7802;BME280;3945;48.952;9.506;2023-02-12T01:26:54;99906.47;;;5.42;83.60
7802;BME280;3945;48.952;9.506;2023-02-12T01:29:20;99902.34;;;5.40;83.71
7802;BME280;3945;48.952;9.506;2023-02-12T01:31:47;99908.44;;;5.40;83.86
7802;BME280;3945;48.952;9.506;2023-02-12T01:34:13;99904.31;;;5.38;83.89
7802;BME280;3945;48.952;9.506;2023-02-12T01:36:39;99900.69;;;5.39;83.57
7802;BME280;3945;48.952;9.506;2023-02-12T01:39:05;99900.03;;;5.37;83.83
7802;BME280;3945;48.952;9.506;2023-02-12T01:41:32;99901.81;;;5.36;83.76
7802;BME280;3945;48.952;9.506;2023-02-12T01:44:05;99887.50;;;5.39;83.95
7802;BME280;3945;48.952;9.506;2023-02-12T01:46:31;99893.41;;;5.41;84.07
7802;BME280;3945;48.952;9.506;2023-02-12T01:48:58;99901.53;;;5.39;83.75
7802;BME280;3945;48.952;9.506;2023-02-12T01:51:25;99905.78;;;5.40;84.07
7802;BME280;3945;48.952;9.506;2023-02-12T01:53:53;99909.44;;;5.39;83.97
7802;BME280;3945;48.952;9.506;2023-02-12T01:56:20;99911.06;;;5.40;83.81
7802;BME280;3945;48.952;9.506;2023-02-12T01:58:48;99904.47;;;5.36;83.87
7802;BME280;3945;48.952;9.506;2023-02-12T02:01:19;99903.16;;;5.32;84.20
7802;BME280;3945;48.952;9.506;2023-02-12T02:03:47;99901.63;;;5.30;84.17
7802;BME280;3945;48.952;9.506;2023-02-12T02:06:15;99901.09;;;5.26;84.33
7802;BME280;3945;48.952;9.506;2023-02-12T02:08:43;99894.19;;;5.25;84.44
7802;BME280;3945;48.952;9.506;2023-02-12T02:11:09;99891.56;;;5.25;84.42
7802;BME280;3945;48.952;9.506;2023-02-12T02:13:50;99890.25;;;5.29;84.04
7802;BME280;3945;48.952;9.506;2023-02-12T02:16:36;99882.03;;;5.32;84.29
7802;BME280;3945;48.952;9.506;2023-02-12T02:19:07;99880.03;;;5.34;84.64
7802;BME280;3945;48.952;9.506;2023-02-12T02:21:45;99887.94;;;5.34;84.59
7802;BME280;3945;48.952;9.506;2023-02-12T02:24:24;99875.59;;;5.35;84.67
7802;BME280;3945;48.952;9.506;2023-02-12T02:27:02;99878.06;;;5.36;84.78
7802;BME280;3945;48.952;9.506;2023-02-12T02:32:27;99883.84;;;5.32;85.13
7802;BME280;3945;48.952;9.506;2023-02-12T02:34:56;99875.25;;;5.30;84.67
7802;BME280;3945;48.952;9.506;2023-02-12T02:37:26;99867.63;;;5.27;85.02
7802;BME280;3945;48.952;9.506;2023-02-12T02:39:54;99873.91;;;5.26;85.10
7802;BME280;3945;48.952;9.506;2023-02-12T02:42:24;99869.78;;;5.23;85.26
7802;BME280;3945;48.952;9.506;2023-02-12T02:44:54;99868.94;;;5.23;85.21
7802;BME280;3945;48.952;9.506;2023-02-12T02:47:21;99874.56;;;5.28;85.16
7802;BME280;3945;48.952;9.506;2023-02-12T02:49:50;99874.72;;;5.26;85.57
7802;BME280;3945;48.952;9.506;2023-02-12T02:52:21;99875.88;;;5.24;85.45
7802;BME280;3945;48.952;9.506;2023-02-12T02:54:50;99877.69;;;5.23;85.42
7802;BME280;3945;48.952;9.506;2023-02-12T02:57:20;99881.00;;;5.25;85.37
7802;BME280;3945;48.952;9.506;2023-02-12T02:59:51;99882.47;;;5.28;85.33
7802;BME280;3945;48.952;9.506;2023-02-12T03:02:20;99877.72;;;5.31;85.60
7802;BME280;3945;48.952;9.506;2023-02-12T03:04:48;99883.66;;;5.33;85.27
7802;BME280;3945;48.952;9.506;2023-02-12T03:07:18;99883.84;;;5.32;85.51
7802;BME280;3945;48.952;9.506;2023-02-12T03:09:46;99885.66;;;5.31;85.76
7802;BME280;3945;48.952;9.506;2023-02-12T03:12:15;99882.84;;;5.33;85.59
7802;BME280;3945;48.952;9.506;2023-02-12T03:14:44;99882.03;;;5.32;85.63
7802;BME280;3945;48.952;9.506;2023-02-12T03:17:12;99885.13;;;5.28;85.69
7802;BME280;3945;48.952;9.506;2023-02-12T03:19:41;99890.56;;;5.26;85.37
7802;BME280;3945;48.952;9.506;2023-02-12T03:22:09;99887.41;;;5.23;85.35
7802;BME280;3945;48.952;9.506;2023-02-12T03:24:39;99889.72;;;5.18;85.59
7802;BME280;3945;48.952;9.506;2023-02-12T03:27:08;99877.81;;;5.14;85.88
7802;BME280;3945;48.952;9.506;2023-02-12T03:29:36;99887.38;;;5.15;85.72
7802;BME280;3945;48.952;9.506;2023-02-12T03:32:05;99883.22;;;5.12;85.90
7802;BME280;3945;48.952;9.506;2023-02-12T03:34:38;99887.53;;;5.13;85.90
7802;BME280;3945;48.952;9.506;2023-02-12T03:37:08;99886.06;;;5.10;86.06
7802;BME280;3945;48.952;9.506;2023-02-12T03:39:37;99884.06;;;5.13;86.12
7802;BME280;3945;48.952;9.506;2023-02-12T03:42:12;99891.97;;;5.13;86.22
7802;BME280;3945;48.952;9.506;2023-02-12T03:44:46;99892.66;;;5.15;86.08
7802;BME280;3945;48.952;9.506;2023-02-12T03:47:15;99895.16;;;5.16;86.26
7802;BME280;3945;48.952;9.506;2023-02-12T03:49:46;99889.72;;;5.18;86.27
7802;BME280;3945;48.952;9.506;2023-02-12T03:52:16;99888.06;;;5.17;86.40
7802;BME280;3945;48.952;9.506;2023-02-12T03:54:42;99893.47;;;5.15;86.53
7802;BME280;3945;48.952;9.506;2023-02-12T03:57:09;99902.06;;;5.17;86.62
7802;BME280;3945;48.952;9.506;2023-02-12T03:59:38;99900.28;;;5.18;86.58
7802;BME280;3945;48.952;9.506;2023-02-12T04:02:05;99898.28;;;5.20;86.51
7802;BME280;3945;48.952;9.506;2023-02-12T04:04:32;99897.00;;;5.24;86.61
7802;BME280;3945;48.952;9.506;2023-02-12T04:06:58;99902.94;;;5.26;86.88
7802;BME280;3945;48.952;9.506;2023-02-12T04:09:25;99904.09;;;5.23;86.88
7802;BME280;3945;48.952;9.506;2023-02-12T04:11:57;99902.41;;;5.22;86.63
7802;BME280;3945;48.952;9.506;2023-02-12T04:14:26;99906.72;;;5.23;86.59
7802;BME280;3945;48.952;9.506;2023-02-12T04:16:59;99909.84;;;5.27;86.67
7802;BME280;3945;48.952;9.506;2023-02-12T04:19:29;99901.78;;;5.28;86.32
7802;BME280;3945;48.952;9.506;2023-02-12T04:22:03;99903.59;;;5.28;86.83
7802;BME280;3945;48.952;9.506;2023-02-12T04:24:37;99911.66;;;5.26;86.66
7802;BME280;3945;48.952;9.506;2023-02-12T04:27:07;99913.66;;;5.24;86.66
7802;BME280;3945;48.952;9.506;2023-02-12T04:29:36;99912.69;;;5.25;87.12
7802;BME280;3945;48.952;9.506;2023-02-12T04:32:10;99917.78;;;5.27;86.71
7802;BME280;3945;48.952;9.506;2023-02-12T04:34:38;99912.50;;;5.27;86.70
7802;BME280;3945;48.952;9.506;2023-02-12T04:37:11;99917.97;;;5.25;86.50
7802;BME280;3945;48.952;9.506;2023-02-12T04:39:39;99926.19;;;5.22;86.49
7802;BME280;3945;48.952;9.506;2023-02-12T04:42:06;99922.03;;;5.20;86.50
7802;BME280;3945;48.952;9.506;2023-02-12T04:44:33;99929.28;;;5.18;86.59
7802;BME280;3945;48.952;9.506;2023-02-12T04:46:59;99924.31;;;5.15;86.72
7802;BME280;3945;48.952;9.506;2023-02-12T04:49:27;99923.50;;;5.14;86.87
7802;BME280;3945;48.952;9.506;2023-02-12T04:51:54;99921.69;;;5.15;87.01
7802;BME280;3945;48.952;9.506;2023-02-12T04:54:20;99916.41;;;5.15;86.84
7802;BME280;3945;48.952;9.506;2023-02-12T04:56:47;99927.63;;;5.17;87.00
7802;BME280;3945;48.952;9.506;2023-02-12T04:59:14;99922.22;;;5.18;87.14
7802;BME280;3945;48.952;9.506;2023-02-12T05:01:41;99922.84;;;5.20;86.99
7802;BME280;3945;48.952;9.506;2023-02-12T05:04:09;99924.38;;;5.23;86.90
7802;BME280;3945;48.952;9.506;2023-02-12T05:06:38;99917.28;;;5.23;86.92
7802;BME280;3945;48.952;9.506;2023-02-12T05:09:05;99916.31;;;5.24;87.02
7802;BME280;3945;48.952;9.506;2023-02-12T05:11:32;99915.31;;;5.25;86.74
7802;BME280;3945;48.952;9.506;2023-02-12T05:13:58;99914.63;;;5.23;87.05
7802;BME280;3945;48.952;9.506;2023-02-12T05:16:25;99911.31;;;5.21;86.85
7802;BME280;3945;48.952;9.506;2023-02-12T05:18:51;99906.03;;;5.21;87.13
7802;BME280;3945;48.952;9.506;2023-02-12T05:21:17;99900.47;;;5.24;87.06
7802;BME280;3945;48.952;9.506;2023-02-12T05:23:45;99911.84;;;5.25;87.07
7802;BME280;3945;48.952;9.506;2023-02-12T05:26:12;99912.81;;;5.24;87.33
7802;BME280;3945;48.952;9.506;2023-02-12T05:28:39;99917.44;;;5.22;86.90
7802;BME280;3945;48.952;9.506;2023-02-12T05:31:06;99920.22;;;5.20;87.40
7802;BME280;3945;48.952;9.506;2023-02-12T05:33:33;99916.09;;;5.18;87.18
7802;BME280;3945;48.952;9.506;2023-02-12T05:36:03;99909.00;;;5.18;87.35
7802;BME280;3945;48.952;9.506;2023-02-12T05:38:30;99914.09;;;5.20;86.81
7802;BME280;3945;48.952;9.506;2023-02-12T05:41:01;99918.41;;;5.21;87.41
7802;BME280;3945;48.952;9.506;2023-02-12T05:43:27;99919.25;;;5.21;87.69
7802;BME280;3945;48.952;9.506;2023-02-12T05:45:53;99923.84;;;5.19;87.71
7802;BME280;3945;48.952;9.506;2023-02-12T05:48:20;99917.91;;;5.17;87.73
7802;BME280;3945;48.952;9.506;2023-02-12T05:50:46;99921.19;;;5.19;87.68
7802;BME280;3945;48.952;9.506;2023-02-12T05:53:12;99921.19;;;5.19;87.67
7802;BME280;3945;48.952;9.506;2023-02-12T05:55:38;99924.03;;;5.18;87.76
7802;BME280;3945;48.952;9.506;2023-02-12T05:58:06;99917.22;;;5.15;87.58
7802;BME280;3945;48.952;9.506;2023-02-12T06:00:32;99920.16;;;5.12;87.84
7802;BME280;3945;48.952;9.506;2023-02-12T06:02:59;99920.34;;;5.10;87.70
7802;BME280;3945;48.952;9.506;2023-02-12T06:05:25;99919.53;;;5.10;88.04
7802;BME280;3945;48.952;9.506;2023-02-12T06:07:51;99922.16;;;5.10;87.95
7802;BME280;3945;48.952;9.506;2023-02-12T06:10:18;99925.63;;;5.10;88.00
7802;BME280;3945;48.952;9.506;2023-02-12T06:12:44;99919.66;;;5.08;88.12
7802;BME280;3945;48.952;9.506;2023-02-12T06:15:12;99929.25;;;5.09;88.00
7802;BME280;3945;48.952;9.506;2023-02-12T06:17:38;99921.47;;;5.08;88.30
7802;BME280;3945;48.952;9.506;2023-02-12T06:20:04;99918.69;;;5.09;88.26
7802;BME280;3945;48.952;9.506;2023-02-12T06:22:31;99923.97;;;5.09;88.29
7802;BME280;3945;48.952;9.506;2023-02-12T06:24:57;99926.47;;;5.11;88.50
7802;BME280;3945;48.952;9.506;2023-02-12T06:27:23;99924.81;;;5.10;88.61
7802;BME280;3945;48.952;9.506;2023-02-12T06:29:50;99926.13;;;5.14;88.54
7802;BME280;3945;48.952;9.506;2023-02-12T06:32:17;99924.31;;;5.15;88.66
7802;BME280;3945;48.952;9.506;2023-02-12T06:34:44;99932.22;;;5.15;88.87
7802;BME280;3945;48.952;9.506;2023-02-12T06:37:10;99932.22;;;5.15;88.87
7802;BME280;3945;48.952;9.506;2023-02-12T06:39:37;99933.22;;;5.14;88.77
7802;BME280;3945;48.952;9.506;2023-02-12T06:42:03;99930.91;;;5.10;88.97
7802;BME280;3945;48.952;9.506;2023-02-12T06:44:30;99935.34;;;5.10;88.62
7802;BME280;3945;48.952;9.506;2023-02-12T06:46:56;99938.00;;;5.10;89.14
7802;BME280;3945;48.952;9.506;2023-02-12T06:49:24;99944.25;;;5.09;89.12
7802;BME280;3945;48.952;9.506;2023-02-12T06:51:50;99943.72;;;5.05;89.24
7802;BME280;3945;48.952;9.506;2023-02-12T06:54:17;99941.91;;;5.06;89.17
7802;BME280;3945;48.952;9.506;2023-02-12T06:56:43;99944.53;;;5.06;89.16
7802;BME280;3945;48.952;9.506;2023-02-12T06:59:11;99951.47;;;5.07;88.97
7802;BME280;3945;48.952;9.506;2023-02-12T07:01:37;99952.84;;;5.11;89.22
7802;BME280;3945;48.952;9.506;2023-02-12T07:04:04;99954.47;;;5.12;89.23
7802;BME280;3945;48.952;9.506;2023-02-12T07:06:32;99952.38;;;5.16;89.34
7802;BME280;3945;48.952;9.506;2023-02-12T07:08:59;99960.97;;;5.18;89.25
7802;BME280;3945;48.952;9.506;2023-02-12T07:11:25;99956.19;;;5.21;89.44
7802;BME280;3945;48.952;9.506;2023-02-12T07:13:52;99956.88;;;5.23;89.66
7802;BME280;3945;48.952;9.506;2023-02-12T07:16:18;99953.09;;;5.26;89.63
7802;BME280;3945;48.952;9.506;2023-02-12T07:18:45;99947.97;;;5.24;89.81
7802;BME280;3945;48.952;9.506;2023-02-12T07:21:12;99956.03;;;5.23;89.76
7802;BME280;3945;48.952;9.506;2023-02-12T07:23:40;99957.69;;;5.24;89.83
7802;BME280;3945;48.952;9.506;2023-02-12T07:26:09;99959.84;;;5.28;89.88
7802;BME280;3945;48.952;9.506;2023-02-12T07:28:36;99963.66;;;5.26;89.87
7802;BME280;3945;48.952;9.506;2023-02-12T07:31:06;99978.31;;;5.28;90.18
7802;BME280;3945;48.952;9.506;2023-02-12T07:33:32;99962.50;;;5.28;90.41
7802;BME280;3945;48.952;9.506;2023-02-12T07:35:59;99967.47;;;5.31;91.01
7802;BME280;3945;48.952;9.506;2023-02-12T07:38:25;99958.09;;;5.37;91.18
7802;BME280;3945;48.952;9.506;2023-02-12T07:40:53;99967.19;;;5.42;91.36
7802;BME280;3945;48.952;9.506;2023-02-12T07:43:21;99959.63;;;5.47;91.47
7802;BME280;3945;48.952;9.506;2023-02-12T07:45:47;99966.75;;;5.55;91.83
7802;BME280;3945;48.952;9.506;2023-02-12T07:48:13;99975.34;;;5.57;92.04
7802;BME280;3945;48.952;9.506;2023-02-12T07:50:40;99972.75;;;5.65;91.52
7802;BME280;3945;48.952;9.506;2023-02-12T07:53:06;99974.91;;;5.70;91.94
7802;BME280;3945;48.952;9.506;2023-02-12T07:55:32;99960.56;;;5.72;92.10
7802;BME280;3945;48.952;9.506;2023-02-12T07:58:00;99964.53;;;5.76;91.89
7802;BME280;3945;48.952;9.506;2023-02-12T08:00:26;99961.28;;;5.82;92.19
7802;BME280;3945;48.952;9.506;2023-02-12T08:02:53;99969.56;;;5.87;92.21
7802;BME280;3945;48.952;9.506;2023-02-12T08:05:19;99961.66;;;5.96;92.27
7802;BME280;3945;48.952;9.506;2023-02-12T08:07:46;99958.38;;;6.02;91.82
7802;BME280;3945;48.952;9.506;2023-02-12T08:10:12;99962.19;;;6.07;91.53
7802;BME280;3945;48.952;9.506;2023-02-12T08:12:38;99965.00;;;6.14;91.69
7802;BME280;3945;48.952;9.506;2023-02-12T08:15:07;99970.66;;;6.19;91.80
7802;BME280;3945;48.952;9.506;2023-02-12T08:17:33;99968.34;;;6.24;92.21
7802;BME280;3945;48.952;9.506;2023-02-12T08:19:59;99968.53;;;6.31;91.56
7802;BME280;3945;48.952;9.506;2023-02-12T08:22:26;99960.91;;;6.36;91.29
7802;BME280;3945;48.952;9.506;2023-02-12T08:24:52;99960.75;;;6.37;91.12
7802;BME280;3945;48.952;9.506;2023-02-12T08:27:19;99967.56;;;6.40;91.54
7802;BME280;3945;48.952;9.506;2023-02-12T08:29:45;99966.22;;;6.44;91.35
7802;BME280;3945;48.952;9.506;2023-02-12T08:32:13;99970.22;;;6.48;90.49
7802;BME280;3945;48.952;9.506;2023-02-12T08:34:41;99967.88;;;6.53;89.81
7802;BME280;3945;48.952;9.506;2023-02-12T08:37:07;99969.69;;;6.52;89.52
7802;BME280;3945;48.952;9.506;2023-02-12T08:39:33;99961.44;;;6.55;89.76
7802;BME280;3945;48.952;9.506;2023-02-12T08:42:00;99966.25;;;6.60;89.36
7802;BME280;3945;48.952;9.506;2023-02-12T08:44:26;99965.72;;;6.64;89.90
7802;BME280;3945;48.952;9.506;2023-02-12T08:46:53;99965.25;;;6.69;89.76
7802;BME280;3945;48.952;9.506;2023-02-12T08:49:22;99966.41;;;6.75;89.29
7802;BME280;3945;48.952;9.506;2023-02-12T08:51:49;99966.72;;;6.80;89.10
7802;BME280;3945;48.952;9.506;2023-02-12T08:54:17;99972.19;;;6.86;89.26
7802;BME280;3945;48.952;9.506;2023-02-12T08:56:44;99974.16;;;6.92;88.33
7802;BME280;3945;48.952;9.506;2023-02-12T08:59:10;99968.03;;;7.00;88.81
7802;BME280;3945;48.952;9.506;2023-02-12T09:01:39;99966.38;;;7.07;87.74
7802;BME280;3945;48.952;9.506;2023-02-12T09:04:07;99968.53;;;7.12;87.38
7802;BME280;3945;48.952;9.506;2023-02-12T09:06:35;99971.50;;;7.17;87.53
7802;BME280;3945;48.952;9.506;2023-02-12T09:09:01;99962.19;;;7.21;86.38
7802;BME280;3945;48.952;9.506;2023-02-12T09:11:28;99974.13;;;7.25;87.29
7802;BME280;3945;48.952;9.506;2023-02-12T09:13:56;99971.78;;;7.30;86.26
7802;BME280;3945;48.952;9.506;2023-02-12T09:16:23;99967.81;;;7.34;86.83
7802;BME280;3945;48.952;9.506;2023-02-12T09:18:49;99960.34;;;7.37;86.42
7802;BME280;3945;48.952;9.506;2023-02-12T09:21:16;99965.47;;;7.47;85.53
7802;BME280;3945;48.952;9.506;2023-02-12T09:23:45;99955.00;;;7.54;85.58
7802;BME280;3945;48.952;9.506;2023-02-12T09:26:12;99960.28;;;7.62;86.68
7802;BME280;3945;48.952;9.506;2023-02-12T09:28:39;99965.72;;;7.68;85.14
7802;BME280;3945;48.952;9.506;2023-02-12T09:31:07;99961.09;;;7.70;84.68
7802;BME280;3945;48.952;9.506;2023-02-12T09:33:35;99964.19;;;7.74;85.35
7802;BME280;3945;48.952;9.506;2023-02-12T09:36:01;99966.31;;;7.78;86.26
7802;BME280;3945;48.952;9.506;2023-02-12T09:38:28;99961.19;;;7.85;85.50
7802;BME280;3945;48.952;9.506;2023-02-12T09:41:02;99963.59;;;7.95;85.27
7802;BME280;3945;48.952;9.506;2023-02-12T09:43:35;99956.78;;;8.00;85.35
7802;BME280;3945;48.952;9.506;2023-02-12T09:46:09;99959.56;;;8.07;84.61
7802;BME280;3945;48.952;9.506;2023-02-12T09:48:42;99958.88;;;8.13;83.60
7802;BME280;3945;48.952;9.506;2023-02-12T09:51:11;99959.34;;;8.16;84.11
7802;BME280;3945;48.952;9.506;2023-02-12T09:53:38;99969.91;;;8.24;83.59
7802;BME280;3945;48.952;9.506;2023-02-12T09:56:09;99965.25;;;8.27;82.82
7802;BME280;3945;48.952;9.506;2023-02-12T09:58:39;99968.06;;;8.33;82.79
7802;BME280;3945;48.952;9.506;2023-02-12T10:01:09;99970.84;;;8.40;80.63
7802;BME280;3945;48.952;9.506;2023-02-12T10:03:36;99965.00;;;8.44;81.63
7802;BME280;3945;48.952;9.506;2023-02-12T10:06:03;99966.47;;;8.47;81.61
7802;BME280;3945;48.952;9.506;2023-02-12T10:08:33;99969.59;;;8.50;82.38
7802;BME280;3945;48.952;9.506;2023-02-12T10:11:14;99972.72;;;8.54;80.64
7802;BME280;3945;48.952;9.506;2023-02-12T10:13:45;99968.59;;;8.51;80.40
7802;BME280;3945;48.952;9.506;2023-02-12T10:16:15;99967.59;;;8.52;80.86
7802;BME280;3945;48.952;9.506;2023-02-12T10:18:50;99972.19;;;8.58;80.79
7802;BME280;3945;48.952;9.506;2023-02-12T10:21:23;99974.94;;;8.65;80.63
7802;BME280;3945;48.952;9.506;2023-02-12T10:23:57;99969.66;;;8.65;80.54
7802;BME280;3945;48.952;9.506;2023-02-12T10:26:27;99970.97;;;8.69;80.04
7802;BME280;3945;48.952;9.506;2023-02-12T10:28:56;99969.66;;;8.65;79.39
7802;BME280;3945;48.952;9.506;2023-02-12T10:31:25;99969.31;;;8.68;80.52
7802;BME280;3945;48.952;9.506;2023-02-12T10:33:54;99969.66;;;8.65;79.30
7802;BME280;3945;48.952;9.506;2023-02-12T10:36:26;99962.00;;;8.70;80.23
7802;BME280;3945;48.952;9.506;2023-02-12T10:38:56;99971.06;;;8.76;79.87
7802;BME280;3945;48.952;9.506;2023-02-12T10:41:24;99969.69;;;8.80;79.59
7802;BME280;3945;48.952;9.506;2023-02-12T10:43:53;99965.53;;;8.85;79.29
7802;BME280;3945;48.952;9.506;2023-02-12T10:46:20;99971.00;;;8.84;78.81
7802;BME280;3945;48.952;9.506;2023-02-12T10:48:47;99969.00;;;8.86;78.83
7802;BME280;3945;48.952;9.506;2023-02-12T10:51:19;99958.38;;;8.86;78.72
7802;BME280;3945;48.952;9.506;2023-02-12T10:53:51;99968.47;;;8.90;78.84
7802;BME280;3945;48.952;9.506;2023-02-12T10:56:19;99953.19;;;8.92;77.84
7802;BME280;3945;48.952;9.506;2023-02-12T10:58:51;99954.28;;;8.98;78.86
7802;BME280;3945;48.952;9.506;2023-02-12T11:01:21;99955.66;;;9.09;78.55
7802;BME280;3945;48.952;9.506;2023-02-12T11:03:50;99955.13;;;9.13;78.93
7802;BME280;3945;48.952;9.506;2023-02-12T11:06:17;99950.28;;;9.17;77.65
7802;BME280;3945;48.952;9.506;2023-02-12T11:08:43;99944.50;;;9.13;78.00
7802;BME280;3945;48.952;9.506;2023-02-12T11:11:11;99949.44;;;9.16;78.15
7802;BME280;3945;48.952;9.506;2023-02-12T11:13:38;99943.59;;;9.21;77.67
7802;BME280;3945;48.952;9.506;2023-02-12T11:16:04;99938.38;;;9.27;78.02
7802;BME280;3945;48.952;9.506;2023-02-12T11:18:33;99941.78;;;9.36;77.15
7802;BME280;3945;48.952;9.506;2023-02-12T11:21:03;99939.13;;;9.36;76.69
7802;BME280;3945;48.952;9.506;2023-02-12T11:23:30;99938.22;;;9.44;76.83
7802;BME280;3945;48.952;9.506;2023-02-12T11:25:58;99931.88;;;9.45;76.92
7802;BME280;3945;48.952;9.506;2023-02-12T11:28:25;99932.91;;;9.44;76.85
7802;BME280;3945;48.952;9.506;2023-02-12T11:30:53;99929.94;;;9.53;76.90
7802;BME280;3945;48.952;9.506;2023-02-12T11:33:21;99922.88;;;9.60;76.44
7802;BME280;3945;48.952;9.506;2023-02-12T11:35:51;99925.25;;;9.70;75.58
7802;BME280;3945;48.952;9.506;2023-02-12T11:38:20;99932.31;;;9.77;75.57
7802;BME280;3945;48.952;9.506;2023-02-12T11:40:47;99934.88;;;9.71;75.44
7802;BME280;3945;48.952;9.506;2023-02-12T11:43:16;99935.91;;;9.70;75.08
7802;BME280;3945;48.952;9.506;2023-02-12T11:45:43;99932.06;;;9.72;75.79
7802;BME280;3945;48.952;9.506;2023-02-12T11:48:13;99933.13;;;9.78;75.21
7802;BME280;3945;48.952;9.506;2023-02-12T11:50:44;99930.91;;;9.82;74.90
7802;BME280;3945;48.952;9.506;2023-02-12T11:53:19;99935.69;;;9.86;74.73
7802;BME280;3945;48.952;9.506;2023-02-12T11:55:57;99925.06;;;9.86;74.52
7802;BME280;3945;48.952;9.506;2023-02-12T11:58:25;99923.69;;;9.75;74.52
7802;BME280;3945;48.952;9.506;2023-02-12T12:00:53;99926.25;;;9.69;75.13
7802;BME280;3945;48.952;9.506;2023-02-12T12:03:22;99921.13;;;9.67;75.58
7802;BME280;3945;48.952;9.506;2023-02-12T12:05:50;99916.28;;;9.71;75.44
7802;BME280;3945;48.952;9.506;2023-02-12T12:08:20;99919.56;;;9.73;75.51
7802;BME280;3945;48.952;9.506;2023-02-12T12:10:50;99913.88;;;9.76;75.47
7802;BME280;3945;48.952;9.506;2023-02-12T12:13:21;99911.47;;;9.81;75.47
7802;BME280;3945;48.952;9.506;2023-02-12T12:15:49;99915.31;;;9.93;75.15
7802;BME280;3945;48.952;9.506;2023-02-12T12:18:36;99915.66;;;10.05;74.66
7802;BME280;3945;48.952;9.506;2023-02-12T12:21:27;99914.03;;;10.25;73.88
7802;BME280;3945;48.952;9.506;2023-02-12T12:23:57;99905.13;;;10.33;73.69
7802;BME280;3945;48.952;9.506;2023-02-12T12:26:26;99901.13;;;10.43;73.72
7802;BME280;3945;48.952;9.506;2023-02-12T12:28:54;99905.94;;;10.54;73.21
7802;BME280;3945;48.952;9.506;2023-02-12T12:31:24;99914.16;;;10.60;72.11
7802;BME280;3945;48.952;9.506;2023-02-12T12:33:55;99908.59;;;10.54;71.94
7802;BME280;3945;48.952;9.506;2023-02-12T12:39:14;99905.72;;;10.13;72.83
7802;BME280;3945;48.952;9.506;2023-02-12T12:41:46;99901.22;;;10.14;73.44
7802;BME280;3945;48.952;9.506;2023-02-12T12:44:21;99897.91;;;10.12;73.35
7802;BME280;3945;48.952;9.506;2023-02-12T12:46:56;99895.94;;;10.35;74.59
7802;BME280;3945;48.952;9.506;2023-02-12T12:49:31;99900.56;;;10.76;73.19
7802;BME280;3945;48.952;9.506;2023-02-12T12:52:04;99897.25;;;11.29;71.98
7802;BME280;3945;48.952;9.506;2023-02-12T12:54:43;99879.44;;;11.78;70.96
7802;BME280;3945;48.952;9.506;2023-02-12T12:57:16;99881.63;;;12.22;66.81
7802;BME280;3945;48.952;9.506;2023-02-12T12:59:57;99882.66;;;12.27;66.21
7802;BME280;3945;48.952;9.506;2023-02-12T13:02:38;99877.94;;;12.49;66.37
7802;BME280;3945;48.952;9.506;2023-02-12T13:08:01;99864.19;;;12.78;65.30
7802;BME280;3945;48.952;9.506;2023-02-12T13:10:33;99874.44;;;13.01;64.78
7802;BME280;3945;48.952;9.506;2023-02-12T13:13:05;99866.22;;;13.03;62.72
7802;BME280;3945;48.952;9.506;2023-02-12T13:15:36;99866.00;;;13.11;62.08
7802;BME280;3945;48.952;9.506;2023-02-12T13:18:10;99869.69;;;13.10;63.10
7802;BME280;3945;48.952;9.506;2023-02-12T13:20:41;99859.59;;;13.05;62.62
7802;BME280;3945;48.952;9.506;2023-02-12T13:23:10;99857.78;;;12.99;62.83
7802;BME280;3945;48.952;9.506;2023-02-12T13:25:42;99854.09;;;12.94;63.02
7802;BME280;3945;48.952;9.506;2023-02-12T13:28:12;99856.34;;;12.90;63.25
7802;BME280;3945;48.952;9.506;2023-02-12T13:30:41;99852.06;;;12.89;63.51
7802;BME280;3945;48.952;9.506;2023-02-12T13:33:09;99845.88;;;12.95;63.29
7802;BME280;3945;48.952;9.506;2023-02-12T13:35:37;99842.56;;;13.00;62.51
7802;BME280;3945;48.952;9.506;2023-02-12T13:38:06;99844.38;;;13.12;62.97
7802;BME280;3945;48.952;9.506;2023-02-12T13:40:33;99836.97;;;13.21;62.58
7802;BME280;3945;48.952;9.506;2023-02-12T13:43:04;99844.81;;;13.22;62.14
7802;BME280;3945;48.952;9.506;2023-02-12T13:45:35;99838.84;;;13.20;62.47
7802;BME280;3945;48.952;9.506;2023-02-12T13:48:19;99835.97;;;13.22;62.26